Time;durP1;ratioP1;P1;durP2;ratioP2;P2;SDS_P1;SDS_P2;PMS_P1;PMS_P2;Temp;Humidity;BMP_temperature;BMP_pressure;BME280_temperature;BME280_humidity;BME280_pressure;Samples;Min_cycle;Max_cycle;Signal;HPM_P1;HPM_P2
2021/06/22 00:00:52;;;;;;;7.85;1.60;;;;;;;11.95;51.80;101433.84;5087219;28;20804;-69
2021/06/22 00:03:17;;;;;;;5.07;1.20;;;;;;;11.85;51.83;101431.56;5068157;28;20646;-69
2021/06/22 00:05:43;;;;;;;7.95;1.20;;;;;;;11.57;52.20;101426.44;5067665;28;20028;-70
2021/06/22 00:08:08;;;;;;;5.78;1.33;;;;;;;11.55;52.39;101420.38;5086307;28;20032;-67
2021/06/22 00:10:34;;;;;;;4.53;1.73;;;;;;;11.53;52.88;101418.72;5067835;28;20104;-69
2021/06/22 00:13:00;;;;;;;6.72;1.30;;;;;;;11.48;52.38;101420.66;5067396;28;20028;-70
2021/06/22 00:15:28;;;;;;;10.48;2.05;;;;;;;11.43;52.42;101413.81;5051713;28;20028;-68
2021/06/22 00:17:54;;;;;;;9.15;1.35;;;;;;;11.35;52.74;101421.13;5067622;28;20031;-68
2021/06/22 00:20:21;;;;;;;7.28;1.15;;;;;;;11.38;52.58;101415.75;5068024;28;20032;-68
2021/06/22 00:22:48;;;;;;;8.07;0.93;;;;;;;11.31;52.63;101414.28;5062338;28;20043;-68
2021/06/22 00:25:16;;;;;;;3.05;1.08;;;;;;;11.48;52.10;101412.81;5067836;28;20036;-68
2021/06/22 00:27:41;;;;;;;8.43;1.45;;;;;;;11.39;52.58;101421.84;5051061;28;20039;-69
2021/06/22 00:30:09;;;;;;;7.20;0.73;;;;;;;11.51;52.10;101415.31;5067915;28;20024;-68
2021/06/22 00:32:36;;;;;;;10.27;1.30;;;;;;;11.54;52.21;101430.94;5084312;28;20608;-69
2021/06/22 00:35:02;;;;;;;4.10;0.88;;;;;;;11.44;52.33;101430.38;5073274;28;20035;-69
2021/06/22 00:37:27;;;;;;;11.38;1.48;;;;;;;11.02;53.25;101437.03;5068391;28;20444;-68
2021/06/22 00:39:53;;;;;;;12.48;1.58;;;;;;;11.28;52.31;101445.75;5067820;28;20057;-68
2021/06/22 00:42:18;;;;;;;9.57;1.13;;;;;;;11.11;52.36;101458.56;5067821;28;20485;-68
2021/06/22 00:44:44;;;;;;;8.15;0.90;;;;;;;11.13;52.44;101472.44;5066484;28;20036;-68
2021/06/22 00:47:10;;;;;;;6.55;1.00;;;;;;;11.13;51.92;101470.69;5068254;28;20028;-68
2021/06/22 00:49:36;;;;;;;4.50;1.35;;;;;;;10.97;52.35;101467.72;5085225;28;20151;-69
2021/06/22 00:52:02;;;;;;;5.97;0.98;;;;;;;11.01;52.23;101468.47;5050631;28;20032;-68
2021/06/22 00:54:38;;;;;;;4.78;0.85;;;;;;;10.89;52.44;101472.34;5072974;28;20627;-69
2021/06/22 00:57:09;;;;;;;2.13;0.85;;;;;;;10.96;51.71;101481.69;5066302;28;20032;-68
2021/06/22 00:59:35;;;;;;;6.03;1.20;;;;;;;10.87;52.46;101492.44;5085838;28;20028;-68
2021/06/22 01:02:03;;;;;;;2.63;0.63;;;;;;;10.90;52.03;101494.09;5067619;28;20468;-68
2021/06/22 01:04:29;;;;;;;9.60;1.38;;;;;;;10.82;52.27;101499.59;5049704;28;20050;-69
2021/06/22 01:07:14;;;;;;;4.45;0.88;;;;;;;10.89;52.26;101500.25;5054900;28;20024;-68
2021/06/22 01:09:40;;;;;;;5.40;1.00;;;;;;;10.96;52.34;101505.22;5067518;28;20028;-69
2021/06/22 01:12:06;;;;;;;5.65;0.82;;;;;;;11.04;51.92;101498.00;5067031;28;20119;-68
2021/06/22 01:14:32;;;;;;;4.65;0.50;;;;;;;11.01;51.81;101505.94;5049289;28;20059;-70
2021/06/22 01:16:59;;;;;;;5.63;1.25;;;;;;;11.04;51.45;101492.78;5069146;28;20554;-67
2021/06/22 01:19:25;;;;;;;5.97;1.15;;;;;;;10.97;51.33;101501.72;5049919;28;20024;-68
2021/06/22 01:21:56;;;;;;;;;;;;;;;10.91;51.66;101499.31;5061623;28;20027;-68
2021/06/22 01:24:34;;;;;;;6.57;1.60;;;;;;;10.84;51.29;101500.41;5052100;28;20328;-68
2021/06/22 01:27:01;;;;;;;4.88;0.80;;;;;;;10.83;51.23;101507.38;5050031;28;20059;-69
2021/06/22 01:29:29;;;;;;;10.20;0.90;;;;;;;10.87;51.51;101515.13;5066627;28;20031;-69
2021/06/22 01:31:57;;;;;;;3.50;0.52;;;;;;;10.86;51.87;101505.56;5068015;28;20038;-68
2021/06/22 01:34:29;;;;;;;11.30;1.02;;;;;;;10.94;51.61;101509.66;5066031;28;20031;-68
2021/06/22 01:36:58;;;;;;;8.52;0.88;;;;;;;10.90;51.60;101508.03;5067986;28;20039;-68
2021/06/22 01:39:29;;;;;;;6.85;0.85;;;;;;;10.84;51.78;101497.78;5061551;28;20047;-68
2021/06/22 01:41:57;;;;;;;8.23;0.90;;;;;;;10.84;51.92;101503.03;5066516;28;20080;-68
2021/06/22 01:44:28;;;;;;;5.30;0.98;;;;;;;10.81;51.82;101518.75;5048636;28;20032;-68
2021/06/22 01:46:55;;;;;;;;;;;;;;;10.81;51.66;101516.13;5066337;28;20039;-68
2021/06/22 01:49:21;;;;;;;3.50;0.40;;;;;;;10.77;51.36;101517.13;5065866;28;19916;-68
2021/06/22 01:51:47;;;;;;;9.02;0.70;;;;;;;10.67;51.90;101505.25;5085148;28;20575;-68
2021/06/22 01:54:13;;;;;;;6.38;1.23;;;;;;;10.42;52.59;101479.84;5065973;28;20124;-69
2021/06/22 01:56:41;;;;;;;9.98;1.00;;;;;;;10.30;52.72;101469.75;5066467;28;20812;-68
2021/06/22 01:59:06;;;;;;;12.70;0.98;;;;;;;10.12;53.38;101466.75;5050167;28;20032;-68
2021/06/22 02:01:32;;;;;;;6.63;1.08;;;;;;;10.06;53.14;101477.41;5083902;28;20154;-67
2021/06/22 02:04:16;;;;;;;10.93;1.08;;;;;;;10.08;53.16;101474.72;5070293;28;20079;-69
2021/06/22 02:06:43;;;;;;;3.22;0.57;;;;;;;10.08;52.98;101475.63;5065981;28;20040;-69
2021/06/22 02:09:31;;;;;;;4.15;1.38;;;;;;;10.04;53.22;101471.38;5068652;28;20039;-69
2021/06/22 02:11:58;;;;;;;7.45;1.20;;;;;;;9.97;53.41;101469.84;5049711;28;20028;-68
2021/06/22 02:14:26;;;;;;;10.77;1.27;;;;;;;9.95;53.36;101453.34;5083192;28;20114;-68
2021/06/22 02:16:51;;;;;;;5.60;0.90;;;;;;;9.96;52.93;101452.44;5083738;28;20028;-68
2021/06/22 02:19:19;;;;;;;5.40;0.73;;;;;;;9.98;53.12;101461.09;5065655;28;20032;-68
2021/06/22 02:21:45;;;;;;;7.05;0.80;;;;;;;9.99;52.69;101455.81;5065482;28;20047;-68
2021/06/22 02:24:12;;;;;;;5.20;0.55;;;;;;;9.95;53.05;101455.97;5048384;28;20036;-69
2021/06/22 02:26:38;;;;;;;3.95;0.82;;;;;;;9.89;53.55;101466.56;5085064;28;20039;-68
2021/06/22 02:29:03;;;;;;;6.28;1.15;;;;;;;10.07;53.35;101462.59;5066633;28;20192;-68
2021/06/22 02:31:29;;;;;;;7.53;1.17;;;;;;;10.20;53.28;101464.78;5083396;28;20024;-68
2021/06/22 02:33:57;;;;;;;6.32;1.58;;;;;;;10.26;53.05;101473.34;5066185;28;20110;-68
2021/06/22 02:36:27;;;;;;;8.75;2.00;;;;;;;10.25;52.61;101482.09;5062716;28;20051;-70
2021/06/22 02:38:52;;;;;;;10.93;2.08;;;;;;;10.34;52.82;101492.28;5066634;28;20032;-68
2021/06/22 02:41:18;;;;;;;6.68;0.93;;;;;;;10.32;52.69;101505.38;5047626;28;20909;-68
2021/06/22 02:43:48;;;;;;;3.65;1.58;;;;;;;10.20;52.79;101503.13;5064402;28;20027;-69
2021/06/22 02:46:14;;;;;;;10.40;1.25;;;;;;;10.28;52.84;101508.13;5063517;28;20076;-68
2021/06/22 02:48:41;;;;;;;5.93;1.15;;;;;;;10.32;52.66;101509.75;5065219;28;20119;-68
2021/06/22 02:51:09;;;;;;;5.80;1.33;;;;;;;10.30;52.68;101514.16;5079513;28;20059;-68
2021/06/22 02:53:41;;;;;;;7.18;1.15;;;;;;;10.26;52.67;101518.63;5047427;28;20068;-68
2021/06/22 02:56:07;;;;;;;4.85;1.10;;;;;;;10.36;52.98;101524.44;5046130;28;20038;-68
2021/06/22 02:58:36;;;;;;;3.30;0.90;;;;;;;10.41;52.70;101525.16;5082690;28;20097;-68
2021/06/22 03:01:03;;;;;;;4.32;1.15;;;;;;;10.42;52.86;101521.66;5064001;28;20032;-68
2021/06/22 03:03:30;;;;;;;5.65;0.85;;;;;;;10.47;53.19;101529.38;5048720;28;20028;-68
2021/06/22 03:06:10;;;;;;;7.03;1.00;;;;;;;10.55;53.05;101523.03;5064352;28;20194;-68
2021/06/22 03:08:57;;;;;;;6.60;1.05;;;;;;;10.56;53.18;101518.63;5052330;28;20135;-68
2021/06/22 03:11:33;;;;;;;4.55;0.70;;;;;;;10.58;53.20;101528.16;5080809;28;20032;-68
2021/06/22 03:14:02;;;;;;;4.85;1.15;;;;;;;10.63;52.94;101523.63;5064278;28;20093;-68
2021/06/22 03:16:37;;;;;;;9.57;1.27;;;;;;;10.66;52.85;101509.63;5056852;28;20055;-68
2021/06/22 03:19:03;;;;;;;3.42;1.00;;;;;;;10.66;52.81;101517.47;5065793;28;20489;-68
2021/06/22 03:21:36;;;;;;;8.95;1.40;;;;;;;10.64;52.72;101512.28;5048897;28;20020;-68
2021/06/22 03:24:03;;;;;;;6.68;2.17;;;;;;;10.53;52.47;101516.97;5064664;28;20114;-68
2021/06/22 03:26:29;;;;;;;5.22;1.60;;;;;;;10.45;52.82;101523.31;5047269;28;20031;-70
2021/06/22 03:28:55;;;;;;;4.78;1.73;;;;;;;10.39;52.82;101532.19;5047103;28;20040;-70
2021/06/22 03:31:46;;;;;;;7.65;2.97;;;;;;;10.24;52.72;101530.88;5051921;28;20028;-69
2021/06/22 03:34:11;;;;;;;8.77;2.50;;;;;;;10.20;53.01;101527.50;5080861;28;20020;-68
2021/06/22 03:36:38;;;;;;;9.73;2.45;;;;;;;10.19;53.00;101531.00;5065317;28;20051;-69
2021/06/22 03:39:07;;;;;;;4.70;2.80;;;;;;;10.21;53.14;101539.66;5082469;28;20036;-68
2021/06/22 03:41:35;;;;;;;3.67;2.47;;;;;;;10.24;53.29;101545.72;5063197;28;20032;-69
2021/06/22 03:44:04;;;;;;;7.57;2.90;;;;;;;10.25;52.99;101542.19;5056662;28;20031;-69
2021/06/22 03:46:32;;;;;;;13.63;4.20;;;;;;;10.25;53.13;101555.25;5063850;28;20735;-68
2021/06/22 03:48:58;;;;;;;12.45;3.13;;;;;;;10.26;53.12;101555.22;5047601;28;20114;-69
2021/06/22 03:51:23;;;;;;;5.90;3.40;;;;;;;10.22;52.74;101551.81;5082285;28;20036;-68
2021/06/22 03:53:49;;;;;;;10.30;2.75;;;;;;;10.19;52.83;101549.31;5081173;28;20039;-68
2021/06/22 03:56:16;;;;;;;12.98;3.63;;;;;;;10.10;53.33;101549.56;5061801;28;20031;-69
2021/06/22 03:58:56;;;;;;;9.73;2.57;;;;;;;10.09;53.23;101555.66;5050548;28;20385;-68
2021/06/22 04:01:22;;;;;;;4.65;2.63;;;;;;;10.11;53.51;101553.88;5081473;28;20024;-69
2021/06/22 04:03:49;;;;;;;10.55;2.80;;;;;;;10.33;53.26;101561.97;5046386;28;20028;-68
2021/06/22 04:06:15;;;;;;;7.05;2.88;;;;;;;10.46;53.24;101554.66;5062665;28;20048;-69
2021/06/22 04:08:42;;;;;;;8.57;3.67;;;;;;;10.49;52.96;101566.78;5047798;28;20119;-69
2021/06/22 04:11:13;;;;;;;;;;;;;;;10.48;53.21;101572.88;5050017;28;20031;-69
2021/06/22 04:13:40;;;;;;;8.80;3.67;;;;;;;10.54;52.96;101585.78;5083264;28;19961;-69
2021/06/22 04:16:08;;;;;;;6.35;3.00;;;;;;;10.70;52.54;101597.50;5065424;28;20039;-68
2021/06/22 04:18:34;;;;;;;6.38;2.97;;;;;;;10.94;52.71;101608.19;5066393;28;20088;-69
2021/06/22 04:21:03;;;;;;;11.07;3.85;;;;;;;10.94;52.07;101611.66;5050619;28;20074;-69
2021/06/22 04:23:41;;;;;;;5.03;2.60;;;;;;;11.20;52.17;101610.03;5065708;28;20829;-68
2021/06/22 04:26:07;;;;;;;7.72;3.20;;;;;;;11.36;51.41;101611.25;5060736;28;20036;-70
2021/06/22 04:28:32;;;;;;;7.38;3.42;;;;;;;11.44;51.06;101605.75;5084002;28;20500;-68
2021/06/22 04:30:58;;;;;;;6.43;3.22;;;;;;;11.59;51.53;101607.03;5082692;28;20150;-68
2021/06/22 04:33:24;;;;;;;7.20;3.47;;;;;;;11.72;50.75;101600.50;5084625;28;20028;-68
2021/06/22 04:35:50;;;;;;;14.23;3.17;;;;;;;11.88;49.93;101609.56;5055745;28;20032;-67
2021/06/22 04:38:15;;;;;;;9.68;3.78;;;;;;;12.03;50.16;101608.19;5076562;28;20139;-69
2021/06/22 04:40:42;;;;;;;10.70;3.40;;;;;;;12.04;49.27;101609.03;5083865;28;20032;-68
2021/06/22 04:43:07;;;;;;;8.15;2.92;;;;;;;11.93;49.22;101600.69;5067518;28;20065;-68
2021/06/22 04:45:34;;;;;;;13.32;4.15;;;;;;;12.17;49.46;101594.59;5064977;28;20055;-68
2021/06/22 04:48:00;;;;;;;13.48;3.78;;;;;;;12.24;49.59;101590.00;5083639;28;20032;-68
2021/06/22 04:50:26;;;;;;;9.45;3.70;;;;;;;12.28;49.30;101596.84;5050420;28;20047;-68
2021/06/22 04:52:52;;;;;;;8.90;2.97;;;;;;;12.25;49.18;101596.97;5047536;28;20139;-68
2021/06/22 04:55:22;;;;;;;5.05;2.50;;;;;;;12.30;49.10;101579.31;5082495;28;20697;-70
2021/06/22 04:57:48;;;;;;;12.30;3.13;;;;;;;12.36;48.82;101580.88;5045260;28;20024;-71
2021/06/22 05:00:15;;;;;;;12.40;3.88;;;;;;;12.38;49.12;101585.13;5067225;28;20173;-69
2021/06/22 05:02:42;;;;;;;6.68;2.90;;;;;;;12.45;48.77;101584.00;5065561;28;20093;-68
2021/06/22 05:05:09;;;;;;;9.10;3.60;;;;;;;12.42;48.70;101580.63;5083704;28;20067;-69
2021/06/22 05:07:34;;;;;;;13.38;4.00;;;;;;;12.79;49.19;101584.53;5065849;28;20039;-69
2021/06/22 05:10:00;;;;;;;6.57;2.85;;;;;;;13.06;48.81;101580.84;5084267;28;20069;-68
2021/06/22 05:12:26;;;;;;;10.95;4.20;;;;;;;13.27;47.31;101586.16;5067239;28;20389;-69
2021/06/22 05:14:51;;;;;;;11.35;3.17;;;;;;;13.65;46.81;101605.66;5084863;28;20028;-70
2021/06/22 05:17:17;;;;;;;4.07;2.47;;;;;;;14.10;46.15;101596.72;5065830;28;20043;-69
2021/06/22 05:19:42;;;;;;;7.35;3.05;;;;;;;13.91;45.16;101596.66;5082458;28;20728;-68
2021/06/22 05:22:08;;;;;;;12.00;2.67;;;;;;;13.48;46.44;101598.41;5084386;28;20067;-68
2021/06/22 05:24:34;;;;;;;6.95;3.28;;;;;;;13.01;46.99;101597.69;5082665;28;20065;-68
2021/06/22 05:27:00;;;;;;;6.30;3.30;;;;;;;12.32;48.89;101595.00;5066052;28;20118;-68
2021/06/22 05:29:25;;;;;;;10.45;3.72;;;;;;;12.16;49.66;101585.03;5065551;28;20032;-68
2021/06/22 05:31:51;;;;;;;6.07;2.75;;;;;;;12.14;50.14;101581.63;5066156;28;20089;-68
2021/06/22 05:34:16;;;;;;;6.72;3.50;;;;;;;12.07;50.25;101582.75;5082871;28;20119;-70
2021/06/22 05:36:42;;;;;;;7.40;3.17;;;;;;;12.04;49.91;101588.09;5048616;28;20908;-67
2021/06/22 05:39:07;;;;;;;10.68;3.47;;;;;;;11.92;49.87;101584.13;5049006;28;20145;-68
2021/06/22 05:41:33;;;;;;;6.65;3.03;;;;;;;11.91;49.91;101571.97;5082976;28;20798;-68
2021/06/22 05:43:58;;;;;;;11.57;3.65;;;;;;;12.05;49.83;101584.56;5062868;28;20062;-68
2021/06/22 05:46:24;;;;;;;12.98;3.38;;;;;;;12.19;49.74;101577.06;5058203;28;20051;-68
2021/06/22 05:48:49;;;;;;;7.20;3.28;;;;;;;12.34;49.27;101580.06;5066091;28;20040;-69
2021/06/22 05:51:16;;;;;;;7.13;2.67;;;;;;;12.57;48.80;101580.06;5048591;28;20058;-70
2021/06/22 05:53:42;;;;;;;11.25;3.85;;;;;;;12.95;48.08;101575.16;5065779;28;20393;-70
2021/06/22 05:56:07;;;;;;;7.68;3.55;;;;;;;13.16;47.07;101569.97;5063697;28;20040;-69
2021/06/22 05:58:33;;;;;;;11.95;3.42;;;;;;;13.38;47.08;101570.81;5083501;28;20057;-69
2021/06/22 06:00:58;;;;;;;8.90;3.22;;;;;;;13.38;46.47;101562.94;5046474;28;20043;-69
2021/06/22 06:03:23;;;;;;;5.60;3.10;;;;;;;13.70;47.05;101560.78;5065325;28;20043;-69
2021/06/22 06:05:49;;;;;;;8.27;2.63;;;;;;;13.86;45.53;101561.84;5063868;28;20044;-68
2021/06/22 06:08:14;;;;;;;6.05;3.00;;;;;;;14.00;47.05;101563.88;5066273;28;20028;-70
2021/06/22 06:10:40;;;;;;;5.97;2.92;;;;;;;14.08;45.90;101567.03;5048089;28;20036;-69
2021/06/22 06:13:06;;;;;;;4.85;2.13;;;;;;;14.23;44.98;101565.50;5065604;28;20531;-70
2021/06/22 06:15:31;;;;;;;10.90;2.72;;;;;;;14.35;45.12;101564.94;5063190;28;20038;-68
2021/06/22 06:17:57;;;;;;;5.93;2.03;;;;;;;14.31;44.25;101568.63;5065082;28;20056;-68
2021/06/22 06:20:24;;;;;;;6.72;1.48;;;;;;;14.31;44.48;101565.16;5082873;28;20495;-68
2021/06/22 06:22:50;;;;;;;9.75;2.42;;;;;;;14.74;44.00;101566.69;5063564;28;20071;-68
2021/06/22 06:25:16;;;;;;;16.70;3.30;;;;;;;14.80;43.62;101572.59;5046775;28;20649;-67
2021/06/22 06:27:54;;;;;;;4.63;1.15;;;;;;;14.26;44.27;101575.03;5047303;28;20050;-68
2021/06/22 06:30:23;;;;;;;4.38;1.52;;;;;;;14.59;43.52;101584.94;5063992;28;20113;-69
2021/06/22 06:32:50;;;;;;;6.40;1.60;;;;;;;14.68;42.72;101588.03;5064995;28;20024;-68
2021/06/22 06:35:17;;;;;;;7.38;1.67;;;;;;;14.19;44.00;101587.59;5087182;28;20071;-69
2021/06/22 06:37:43;;;;;;;9.00;1.50;;;;;;;14.27;43.67;101601.22;5053073;28;20032;-69
2021/06/22 06:40:09;;;;;;;7.22;1.80;;;;;;;14.32;43.81;101599.28;5086523;28;20044;-69
2021/06/22 06:42:36;;;;;;;12.15;2.03;;;;;;;14.07;44.32;101602.09;5088139;28;20032;-69
2021/06/22 06:45:03;;;;;;;10.57;2.00;;;;;;;14.36;43.09;101613.13;5068775;28;20043;-69
2021/06/22 06:47:29;;;;;;;20.45;2.03;;;;;;;13.78;43.58;101619.09;5069883;28;20396;-68
2021/06/22 06:49:55;;;;;;;4.47;1.15;;;;;;;13.86;43.67;101619.66;5088491;28;20571;-68
2021/06/22 06:52:20;;;;;;;4.70;1.75;;;;;;;14.32;43.49;101622.94;5070092;28;20044;-69
2021/06/22 06:54:46;;;;;;;13.57;1.77;;;;;;;14.40;43.22;101630.47;5070348;28;20135;-69
2021/06/22 06:57:11;;;;;;;5.25;1.70;;;;;;;14.47;43.35;101638.97;5087925;28;20032;-68
2021/06/22 06:59:37;;;;;;;11.80;2.80;;;;;;;14.49;43.02;101634.50;5089052;28;20109;-68
2021/06/22 07:02:03;;;;;;;11.20;1.80;;;;;;;14.48;42.96;101635.44;5069872;28;20036;-68
2021/06/22 07:04:28;;;;;;;8.38;2.15;;;;;;;14.42;42.30;101638.34;5061050;28;20036;-68
2021/06/22 07:06:54;;;;;;;8.32;1.33;;;;;;;14.31;42.00;101637.00;5070346;28;20039;-68
2021/06/22 07:09:19;;;;;;;11.13;1.35;;;;;;;14.30;42.03;101624.78;5089402;28;20032;-68
2021/06/22 07:11:45;;;;;;;5.65;1.10;;;;;;;14.89;42.04;101625.66;5088373;28;20072;-69
2021/06/22 07:14:14;;;;;;;7.10;1.25;;;;;;;14.61;41.34;101638.34;5089263;28;20052;-68
2021/06/22 07:16:40;;;;;;;4.07;0.90;;;;;;;15.31;41.24;101634.28;5068437;28;20036;-69
2021/06/22 07:19:05;;;;;;;9.27;1.02;;;;;;;16.49;38.52;101622.19;5071352;28;20043;-69
2021/06/22 07:21:31;;;;;;;7.70;1.42;;;;;;;17.91;36.22;101628.38;5087134;28;20039;-69
2021/06/22 07:23:57;;;;;;;4.47;0.93;;;;;;;19.59;32.18;101627.63;5088402;28;20065;-69
2021/06/22 07:26:23;;;;;;;6.00;1.35;;;;;;;20.25;30.59;101622.28;5086738;28;20035;-70
2021/06/22 07:28:48;;;;;;;7.35;1.05;;;;;;;19.89;31.69;101629.97;5087930;28;20042;-70
2021/06/22 07:31:14;;;;;;;5.63;0.75;;;;;;;19.66;32.45;101634.19;5086447;28;20096;-69
2021/06/22 07:33:40;;;;;;;12.75;1.20;;;;;;;21.24;29.86;101630.25;5066149;28;20324;-69
2021/06/22 07:36:08;;;;;;;3.83;0.52;;;;;;;20.74;30.14;101632.09;5086952;28;20024;-69
2021/06/22 07:38:35;;;;;;;9.00;0.80;;;;;;;20.41;30.27;101636.19;5052888;28;20063;-68
2021/06/22 07:41:01;;;;;;;7.55;0.70;;;;;;;21.70;29.05;101632.19;5085583;28;20047;-69
2021/06/22 07:43:26;;;;;;;6.15;0.88;;;;;;;23.78;26.89;101629.81;5067983;28;20036;-68
2021/06/22 07:45:52;;;;;;;13.05;0.82;;;;;;;22.90;27.30;101633.53;5065737;28;20024;-68
2021/06/22 07:48:17;;;;;;;9.32;1.33;;;;;;;18.81;31.75;101636.13;5053135;28;20075;-68
2021/06/22 07:50:43;;;;;;;11.38;1.80;;;;;;;18.44;33.09;101646.34;5086401;28;20355;-70
2021/06/22 07:53:09;;;;;;;9.77;0.70;;;;;;;18.16;34.02;101640.97;5055618;28;20048;-69
2021/06/22 07:55:34;;;;;;;4.15;0.40;;;;;;;16.58;37.57;101640.19;5072897;28;20066;-68
2021/06/22 07:58:00;;;;;;;5.63;1.02;;;;;;;16.14;37.96;101646.00;5076727;28;20028;-68
2021/06/22 08:00:42;;;;;;;3.40;0.57;;;;;;;15.59;40.01;101646.94;5088415;28;20123;-68
2021/06/22 08:03:28;;;;;;;;;;;;;;;15.51;39.31;101652.59;5068936;28;20489;-68
2021/06/22 08:05:55;;;;;;;8.35;0.73;;;;;;;15.18;39.21;101649.75;5086213;28;20357;-68
2021/06/22 08:08:22;;;;;;;10.82;1.48;;;;;;;15.41;39.27;101655.75;5055453;28;20375;-68
2021/06/22 08:10:51;;;;;;;5.55;0.65;;;;;;;15.33;39.50;101656.13;5061392;28;20065;-68
2021/06/22 08:13:18;;;;;;;14.18;1.75;;;;;;;15.51;38.99;101652.59;5071608;28;20041;-68
2021/06/22 08:15:44;;;;;;;9.63;0.88;;;;;;;15.29;38.97;101651.94;5087025;28;20043;-69
2021/06/22 08:18:09;;;;;;;10.15;1.00;;;;;;;15.27;39.37;101659.03;5089900;28;20042;-68
2021/06/22 08:20:37;;;;;;;10.63;1.63;;;;;;;15.12;39.24;101661.41;5071474;28;20036;-68
2021/06/22 08:23:03;;;;;;;13.05;0.82;;;;;;;15.31;38.80;101657.97;5090654;28;20021;-68
2021/06/22 08:25:29;;;;;;;7.13;1.00;;;;;;;16.14;37.78;101661.81;5051545;28;20051;-68
2021/06/22 08:27:56;;;;;;;7.78;0.95;;;;;;;15.75;36.86;101668.13;5056088;28;20040;-68
2021/06/22 08:30:23;;;;;;;6.22;1.25;;;;;;;15.33;37.50;101670.16;5083008;28;20024;-68
2021/06/22 08:32:49;;;;;;;5.20;1.58;;;;;;;16.85;35.74;101663.44;5086944;28;20038;-68
2021/06/22 08:35:15;;;;;;;13.13;1.70;;;;;;;19.37;31.53;101672.34;5087503;28;20570;-69
2021/06/22 08:37:41;;;;;;;6.90;1.00;;;;;;;20.81;29.48;101675.88;5088591;28;20268;-68
2021/06/22 08:40:08;;;;;;;12.43;0.70;;;;;;;18.55;32.07;101688.03;5089824;28;20055;-68
2021/06/22 08:42:36;;;;;;;3.25;0.30;;;;;;;17.90;33.47;101683.06;5072432;28;20027;-69
2021/06/22 08:45:04;;;;;;;7.78;1.13;;;;;;;17.86;34.13;101689.47;5087626;28;20032;-69
2021/06/22 08:47:30;;;;;;;7.03;0.77;;;;;;;17.12;34.43;101688.31;5070575;28;20036;-69
2021/06/22 08:49:57;;;;;;;6.68;1.05;;;;;;;17.27;34.22;101691.91;5088669;28;20104;-69
2021/06/22 08:52:25;;;;;;;4.00;1.65;;;;;;;18.11;33.92;101698.59;5087565;28;20028;-69
2021/06/22 08:54:54;;;;;;;6.95;1.13;;;;;;;17.75;32.97;101703.31;5074675;28;20402;-68
2021/06/22 08:57:21;;;;;;;10.30;1.58;;;;;;;17.49;33.91;101718.00;5072142;28;20135;-70
2021/06/22 08:59:47;;;;;;;7.65;1.10;;;;;;;17.15;34.23;101714.53;5089533;28;20031;-69
2021/06/22 09:02:14;;;;;;;11.90;1.30;;;;;;;16.47;36.35;101717.28;5074041;28;22011;-68
2021/06/22 09:04:39;;;;;;;5.70;0.73;;;;;;;16.09;36.00;101717.44;5091089;28;20051;-69
2021/06/22 09:07:05;;;;;;;9.77;0.95;;;;;;;16.03;36.92;101719.53;5073318;28;20012;-69
2021/06/22 09:09:35;;;;;;;7.28;0.68;;;;;;;16.80;36.66;101719.97;5092669;28;20047;-69
2021/06/22 09:12:05;;;;;;;5.88;0.90;;;;;;;18.66;31.88;101727.09;5090729;28;20036;-69
2021/06/22 09:14:35;;;;;;;8.02;0.80;;;;;;;18.73;31.78;101720.47;5088922;28;20027;-69
2021/06/22 09:17:03;;;;;;;7.85;1.10;;;;;;;18.19;32.31;101714.94;5070106;28;20036;-69
2021/06/22 09:19:30;;;;;;;6.75;0.70;;;;;;;17.63;33.57;101715.44;5089568;28;20093;-69
2021/06/22 09:21:57;;;;;;;28.20;3.03;;;;;;;17.13;33.63;101713.78;5090092;28;20040;-68
2021/06/22 09:24:27;;;;;;;11.32;1.70;;;;;;;16.99;33.96;101713.69;5090937;28;20082;-69
2021/06/22 09:26:53;;;;;;;6.28;0.88;;;;;;;17.41;33.94;101714.91;5088665;28;20061;-68
2021/06/22 09:29:21;;;;;;;3.90;0.75;;;;;;;17.38;34.46;101704.50;5071784;28;20103;-68
2021/06/22 09:31:55;;;;;;;7.32;1.27;;;;;;;16.21;35.59;101713.31;5069849;28;20035;-70
2021/06/22 09:34:22;;;;;;;6.78;0.75;;;;;;;16.26;35.41;101719.19;5086682;28;20122;-69
2021/06/22 09:36:52;;;;;;;8.98;1.25;;;;;;;16.30;35.85;101720.75;5080131;28;20704;-70
2021/06/22 09:39:19;;;;;;;5.35;0.75;;;;;;;16.07;35.86;101713.16;5092018;28;20147;-69
2021/06/22 09:41:45;;;;;;;2.15;0.55;;;;;;;16.15;35.71;101717.13;5092544;28;20032;-69
2021/06/22 09:44:11;;;;;;;9.50;1.08;;;;;;;15.96;35.94;101711.03;5093130;28;20028;-69
2021/06/22 09:46:52;;;;;;;6.13;0.70;;;;;;;15.97;35.68;101718.00;5058836;28;20050;-69
2021/06/22 09:49:27;;;;;;;10.32;0.68;;;;;;;15.87;35.49;101725.50;5092892;28;20040;-69
2021/06/22 09:51:57;;;;;;;2.97;0.40;;;;;;;16.14;34.79;101730.38;5089907;28;20122;-68
2021/06/22 09:54:25;;;;;;;1.83;0.52;;;;;;;16.22;34.57;101728.22;5090650;28;20020;-69
2021/06/22 09:57:04;;;;;;;4.93;0.65;;;;;;;16.39;34.25;101727.34;5069766;28;20093;-70
2021/06/22 09:59:54;;;;;;;7.75;0.80;;;;;;;16.80;33.37;101741.09;5089335;28;20052;-70
2021/06/22 10:02:28;;;;;;;5.53;0.80;;;;;;;16.12;34.42;101737.53;5061630;28;20039;-69
2021/06/22 10:04:57;;;;;;;3.38;0.88;;;;;;;16.26;35.37;101740.31;5087907;28;20040;-69
2021/06/22 10:07:24;;;;;;;1.42;0.30;;;;;;;16.39;33.36;101741.38;5089461;28;20111;-69
2021/06/22 10:09:53;;;;;;;3.45;0.63;;;;;;;16.36;34.46;101731.00;5089191;28;20070;-70
2021/06/22 10:12:19;;;;;;;1.88;0.73;;;;;;;17.24;32.89;101735.16;5071618;28;20028;-69
2021/06/22 10:14:50;;;;;;;1.70;0.40;;;;;;;17.24;33.16;101743.09;5090482;28;20032;-70
2021/06/22 10:17:21;;;;;;;8.95;0.90;;;;;;;16.81;33.50;101740.13;5063256;28;20101;-69
2021/06/22 10:19:51;;;;;;;10.77;0.85;;;;;;;17.27;32.65;101735.94;5090061;28;20121;-68
2021/06/22 10:22:21;;;;;;;2.05;0.57;;;;;;;16.70;33.36;101742.44;5055838;28;20032;-69
2021/06/22 10:24:47;;;;;;;3.80;0.50;;;;;;;17.05;32.34;101739.78;5089731;28;20501;-68
2021/06/22 10:27:16;;;;;;;12.20;1.23;;;;;;;16.62;33.44;101734.06;5089447;28;20081;-70
2021/06/22 10:29:44;;;;;;;4.50;1.05;;;;;;;17.22;33.43;101733.56;5070684;28;20032;-69
2021/06/22 10:32:10;;;;;;;5.35;0.45;;;;;;;17.32;32.68;101741.84;5071362;28;20140;-68
2021/06/22 10:34:37;;;;;;;9.43;0.80;;;;;;;17.43;33.17;101739.47;5054354;28;20062;-69
2021/06/22 10:37:10;;;;;;;8.85;1.45;;;;;;;16.83;34.67;101740.91;5088219;28;20032;-69
2021/06/22 10:39:41;;;;;;;5.05;0.40;;;;;;;16.42;32.89;101743.03;5088423;28;20024;-69
2021/06/22 10:42:12;;;;;;;2.85;0.43;;;;;;;16.72;32.53;101740.59;5069985;28;20176;-69
2021/06/22 10:44:44;;;;;;;8.20;0.70;;;;;;;16.89;33.48;101737.09;5086289;28;20062;-70
2021/06/22 10:47:35;;;;;;;5.45;0.47;;;;;;;17.36;33.13;101738.09;5089058;28;20039;-69
2021/06/22 10:50:12;;;;;;;15.85;1.27;;;;;;;16.95;32.72;101738.53;5089460;28;20521;-70
2021/06/22 10:52:41;;;;;;;5.75;0.73;;;;;;;16.95;32.15;101746.47;5090881;28;20024;-68
2021/06/22 10:55:08;;;;;;;8.40;0.40;;;;;;;16.87;32.24;101749.53;5091352;28;20040;-69
2021/06/22 10:58:02;;;;;;;6.40;0.40;;;;;;;17.86;32.55;101742.34;5088916;28;20039;-69
2021/06/22 11:00:28;;;;;;;8.77;0.80;;;;;;;17.91;32.30;101737.66;5089079;28;20412;-69
2021/06/22 11:03:05;;;;;;;7.47;0.50;;;;;;;17.70;31.24;101746.81;5061280;28;20477;-68
2021/06/22 11:05:34;;;;;;;6.07;0.50;;;;;;;16.99;33.21;101754.16;5069975;28;20124;-70
2021/06/22 11:08:11;;;;;;;2.40;0.40;;;;;;;17.80;32.86;101754.13;5087796;28;20064;-69
2021/06/22 11:10:55;;;;;;;3.60;0.40;;;;;;;18.31;31.25;101756.53;5070161;28;20093;-68
2021/06/22 11:13:40;;;;;;;6.82;0.65;;;;;;;18.51;31.08;101759.78;5087803;28;20032;-69
2021/06/22 11:16:22;;;;;;;11.63;0.52;;;;;;;18.35;30.55;101760.69;5089717;28;20035;-69
2021/06/22 11:18:51;;;;;;;3.92;0.40;;;;;;;17.47;30.60;101778.00;5073462;28;20031;-69
2021/06/22 11:21:20;;;;;;;2.60;0.57;;;;;;;17.37;30.24;101763.59;5094626;28;20491;-70
2021/06/22 11:24:12;;;;;;;5.20;0.65;;;;;;;18.30;29.83;101769.88;5094885;28;20039;-69
2021/06/22 11:26:40;;;;;;;8.60;0.77;;;;;;;18.54;28.74;101770.19;5068257;28;20545;-69
2021/06/22 11:29:11;;;;;;;4.80;0.38;;;;;;;18.87;28.20;101762.88;5084496;28;20040;-69